Time;durP1;ratioP1;P1;durP2;ratioP2;P2;SDS_P1;SDS_P2;PMS_P1;PMS_P2;Temp;Humidity;BMP_temperature;BMP_pressure;BME280_temperature;BME280_humidity;BME280_pressure;Samples;Min_cycle;Max_cycle;Signal;HPM_P1;HPM_P2
2023/05/05 00:01:27;;;;;;;11.38;9.07;;;11.30;99.90;;;;;;5000816;28;20229;-81
2023/05/05 00:03:54;;;;;;;16.33;10.10;;;11.30;99.90;;;;;;5005188;28;20251;-84
2023/05/05 00:06:21;;;;;;;13.20;10.40;;;11.20;99.90;;;;;;5014264;28;20202;-84
2023/05/05 00:08:49;;;;;;;12.55;9.23;;;11.10;99.90;;;;;;5003622;28;20210;-83
2023/05/05 00:11:17;;;;;;;20.00;9.90;;;11.10;99.90;;;;;;5003757;28;20205;-84
2023/05/05 00:13:44;;;;;;;16.35;11.15;;;11.20;99.90;;;;;;5001882;28;20221;-84
2023/05/05 00:16:11;;;;;;;10.82;9.05;;;11.20;99.90;;;;;;5014017;28;20201;-84
2023/05/05 00:18:38;;;;;;;11.68;9.20;;;11.30;99.90;;;;;;5000916;28;20260;-83
2023/05/05 00:21:05;;;;;;;11.32;8.40;;;11.50;99.90;;;;;;5010959;28;20213;-83
2023/05/05 00:23:32;;;;;;;14.20;10.95;;;11.50;99.90;;;;;;5017827;28;20214;-82
2023/05/05 00:26:01;;;;;;;12.80;8.27;;;11.40;99.90;;;;;;5008639;28;20228;-84
2023/05/05 00:28:29;;;;;;;15.93;11.15;;;11.40;99.90;;;;;;5002532;28;20406;-84
2023/05/05 00:30:56;;;;;;;12.73;10.40;;;11.40;99.90;;;;;;5002641;28;20259;-83
2023/05/05 00:33:23;;;;;;;15.73;10.30;;;11.10;99.90;;;;;;5009547;28;20209;-84
2023/05/05 00:35:50;;;;;;;13.50;9.98;;;11.20;99.90;;;;;;5010260;28;20244;-83
2023/05/05 00:38:17;;;;;;;13.02;9.60;;;11.30;99.90;;;;;;5015205;28;20201;-85
2023/05/05 00:40:44;;;;;;;16.10;9.43;;;11.40;99.90;;;;;;4993511;28;20209;-83
2023/05/05 00:43:11;;;;;;;18.27;10.05;;;11.40;99.90;;;;;;5013045;28;20232;-84
2023/05/05 00:45:41;;;;;;;18.52;11.27;;;11.40;99.90;;;;;;4984434;28;20309;-84
2023/05/05 00:48:08;;;;;;;12.88;10.30;;;11.20;99.90;;;;;;5012833;28;20223;-84
2023/05/05 00:50:36;;;;;;;12.25;9.80;;;11.10;99.90;;;;;;5001822;28;20209;-83
2023/05/05 00:53:05;;;;;;;13.18;9.93;;;11.10;99.90;;;;;;4975607;28;20211;-81
2023/05/05 00:55:34;;;;;;;14.68;11.25;;;11.00;99.90;;;;;;5004208;28;20201;-81
2023/05/05 00:58:03;;;;;;;18.15;10.48;;;10.90;99.90;;;;;;5001973;28;20206;-84
2023/05/05 01:00:37;;;;;;;12.55;9.65;;;10.90;99.90;;;;;;5002253;28;20507;-82
2023/05/05 01:03:04;;;;;;;13.88;10.00;;;10.90;99.90;;;;;;5008663;28;20233;-82
2023/05/05 01:05:45;;;;;;;15.02;10.23;;;10.80;99.90;;;;;;5005238;28;20300;-84
2023/05/05 01:08:24;;;;;;;17.23;10.43;;;10.80;99.90;;;;;;4980513;28;20202;-83
2023/05/05 01:11:01;;;;;;;12.60;9.48;;;10.80;99.90;;;;;;5010865;28;20291;-84
2023/05/05 01:13:46;;;;;;;15.95;10.65;;;10.80;99.90;;;;;;4982362;28;20212;-83
2023/05/05 01:16:29;;;;;;;12.25;9.98;;;10.80;99.90;;;;;;4992381;28;20209;-84
2023/05/05 01:19:18;;;;;;;13.70;10.27;;;10.80;99.90;;;;;;5016923;28;20212;-83
2023/05/05 01:21:59;;;;;;;16.20;9.63;;;10.80;99.90;;;;;;5013402;28;20225;-82
2023/05/05 01:24:58;;;;;;;19.67;9.25;;;10.80;99.90;;;;;;4987522;28;20510;-82
2023/05/05 01:27:45;;;;;;;11.43;9.50;;;10.80;99.90;;;;;;5002300;28;20265;-86
2023/05/05 01:30:50;;;;;;;21.10;10.32;;;10.70;99.90;;;;;;4995205;28;20217;-83
2023/05/05 01:33:23;;;;;;;14.27;10.70;;;10.50;99.90;;;;;;5002388;28;20218;-82
2023/05/05 01:35:55;;;;;;;16.88;10.35;;;10.60;99.90;;;;;;5004527;28;20621;-84
2023/05/05 01:38:25;;;;;;;13.63;9.40;;;10.60;99.90;;;;;;5011465;28;20209;-83
2023/05/05 01:41:16;;;;;;;11.90;9.57;;;10.60;99.90;;;;;;4988816;28;20202;-83
2023/05/05 01:43:46;;;;;;;15.38;8.75;;;10.70;99.90;;;;;;4998655;28;20240;-83
2023/05/05 01:46:14;;;;;;;13.18;9.60;;;10.90;99.90;;;;;;5001498;28;20648;-83
2023/05/05 01:48:43;;;;;;;13.32;9.98;;;10.90;99.90;;;;;;5015666;28;20209;-81
2023/05/05 01:51:12;;;;;;;12.40;9.18;;;11.00;99.90;;;;;;5023677;28;20221;-82
2023/05/05 01:53:40;;;;;;;13.20;9.90;;;10.80;99.90;;;;;;5003384;28;20205;-83
2023/05/05 01:56:08;;;;;;;13.82;8.55;;;10.70;99.90;;;;;;5017080;28;20182;-83
2023/05/05 01:58:37;;;;;;;13.77;8.77;;;10.70;99.90;;;;;;5030400;28;20208;-82
2023/05/05 02:01:04;;;;;;;14.73;9.63;;;10.70;99.90;;;;;;5011058;28;20216;-83
2023/05/05 02:03:35;;;;;;;15.13;9.40;;;10.70;99.90;;;;;;5013480;28;20304;-85
2023/05/05 02:06:03;;;;;;;12.40;8.15;;;10.70;99.90;;;;;;5003774;28;20212;-85
2023/05/05 02:08:31;;;;;;;14.63;9.95;;;10.70;99.90;;;;;;5012338;28;20240;-84
2023/05/05 02:11:07;;;;;;;15.10;9.73;;;10.60;99.90;;;;;;5004873;28;20518;-82
2023/05/05 02:13:36;;;;;;;11.75;9.02;;;10.50;99.90;;;;;;4990737;28;20216;-83
2023/05/05 02:16:04;;;;;;;11.73;9.15;;;10.40;99.90;;;;;;5015436;28;20205;-84
2023/05/05 02:18:34;;;;;;;14.52;11.57;;;10.40;99.90;;;;;;4984739;28;20217;-83
2023/05/05 02:21:02;;;;;;;12.35;8.57;;;10.40;99.90;;;;;;5005336;28;20190;-84
2023/05/05 02:23:29;;;;;;;11.90;9.50;;;10.50;99.90;;;;;;5010339;28;20245;-84
2023/05/05 02:26:02;;;;;;;14.00;9.88;;;10.40;99.90;;;;;;5011642;28;20216;-81
2023/05/05 02:28:47;;;;;;;11.25;9.77;;;10.40;99.90;;;;;;5010317;28;20262;-81
2023/05/05 02:31:16;;;;;;;11.38;9.02;;;10.30;99.90;;;;;;5008587;28;20228;-83
2023/05/05 02:33:46;;;;;;;14.90;9.38;;;10.10;99.90;;;;;;5001487;28;20209;-84
2023/05/05 02:36:20;;;;;;;10.23;9.02;;;10.10;99.90;;;;;;5013746;28;20209;-84
2023/05/05 02:38:52;;;;;;;14.85;10.20;;;10.10;99.90;;;;;;5008161;28;20398;-82
2023/05/05 02:41:20;;;;;;;12.98;8.90;;;10.00;99.90;;;;;;5009846;28;20221;-81
2023/05/05 02:43:49;;;;;;;15.30;11.20;;;9.80;99.90;;;;;;4993784;28;20233;-84
2023/05/05 02:46:16;;;;;;;17.10;9.80;;;9.90;99.90;;;;;;5001315;28;20202;-83
2023/05/05 02:48:43;;;;;;;14.68;9.43;;;9.80;99.90;;;;;;4983511;28;20206;-83
2023/05/05 02:51:11;;;;;;;10.90;9.40;;;9.80;99.90;;;;;;5011109;28;20230;-84
2023/05/05 02:53:39;;;;;;;13.52;9.40;;;9.80;99.90;;;;;;5004453;28;20214;-81
2023/05/05 02:56:39;;;;;;;14.95;10.90;;;9.70;99.90;;;;;;5006611;28;20198;-84
2023/05/05 02:59:35;;;;;;;18.10;10.90;;;9.60;99.90;;;;;;4998169;28;20227;-80
2023/05/05 03:02:16;;;;;;;18.80;10.98;;;9.70;99.90;;;;;;4991833;28;20253;-82
2023/05/05 03:04:51;;;;;;;19.02;10.32;;;9.60;99.90;;;;;;5008853;28;20715;-85
2023/05/05 03:07:33;;;;;;;16.63;11.43;;;9.60;99.90;;;;;;5000825;28;20212;-80
2023/05/05 03:10:07;;;;;;;16.05;11.32;;;9.40;99.90;;;;;;5014577;28;20220;-82
2023/05/05 03:12:44;;;;;;;16.02;11.15;;;9.40;99.90;;;;;;5012282;28;20220;-82
2023/05/05 03:15:12;;;;;;;12.13;9.50;;;9.50;99.90;;;;;;4981225;28;20268;-81
2023/05/05 03:17:42;;;;;;;12.50;10.23;;;9.50;99.90;;;;;;5010476;28;20219;-82
2023/05/05 03:20:12;;;;;;;13.60;10.48;;;9.30;99.90;;;;;;4993467;28;20207;-84
2023/05/05 03:22:39;;;;;;;15.50;10.25;;;9.30;99.90;;;;;;5000670;28;20220;-84
2023/05/05 03:25:06;;;;;;;17.63;10.75;;;9.40;99.90;;;;;;5009460;28;20241;-83
2023/05/05 03:27:35;;;;;;;17.95;11.07;;;9.30;99.90;;;;;;5016025;28;20380;-82
2023/05/05 03:30:02;;;;;;;17.52;10.80;;;9.30;99.90;;;;;;5010113;28;20497;-82
2023/05/05 03:32:29;;;;;;;15.05;11.35;;;9.30;99.90;;;;;;5010224;28;20204;-82
2023/05/05 03:34:56;;;;;;;15.07;10.18;;;9.30;99.90;;;;;;5002822;28;20239;-82
2023/05/05 03:37:23;;;;;;;18.30;12.27;;;9.20;99.90;;;;;;5011945;28;20229;-81
2023/05/05 03:39:49;;;;;;;12.63;11.27;;;9.10;99.90;;;;;;5013946;28;20818;-83
2023/05/05 03:42:16;;;;;;;16.95;11.75;;;9.00;99.90;;;;;;5006681;28;20213;-81
2023/05/05 03:44:45;;;;;;;15.48;12.05;;;9.10;99.90;;;;;;5000792;28;20562;-83
2023/05/05 03:47:12;;;;;;;14.20;10.43;;;9.10;99.90;;;;;;5004098;28;20205;-82
2023/05/05 03:49:38;;;;;;;16.77;10.40;;;9.10;99.90;;;;;;5002895;28;20381;-82
2023/05/05 03:52:05;;;;;;;17.77;12.38;;;9.30;99.90;;;;;;4984679;28;20208;-82
2023/05/05 03:54:33;;;;;;;18.20;11.20;;;9.40;99.90;;;;;;5000735;28;20258;-82
2023/05/05 03:57:00;;;;;;;17.15;11.43;;;9.30;99.90;;;;;;5008172;28;20226;-83
2023/05/05 03:59:27;;;;;;;15.63;11.48;;;9.30;99.90;;;;;;5001066;28;20214;-83
2023/05/05 04:01:53;;;;;;;15.60;11.23;;;9.30;99.90;;;;;;4995050;28;20216;-80
2023/05/05 04:04:21;;;;;;;13.75;10.75;;;9.30;99.90;;;;;;5007297;28;20226;-80
2023/05/05 04:06:48;;;;;;;14.75;11.80;;;9.40;99.90;;;;;;5004561;28;20568;-82
2023/05/05 04:09:15;;;;;;;14.68;10.23;;;9.40;99.90;;;;;;5010797;28;20267;-81
2023/05/05 04:11:42;;;;;;;14.07;10.32;;;9.50;99.90;;;;;;4985453;28;20727;-82
2023/05/05 04:14:09;;;;;;;15.93;10.57;;;9.30;99.90;;;;;;5012186;28;20434;-80
2023/05/05 04:16:36;;;;;;;14.77;11.35;;;9.20;99.90;;;;;;4996243;28;20209;-82
2023/05/05 04:19:03;;;;;;;15.18;11.48;;;9.30;99.90;;;;;;5016424;28;20205;-82
2023/05/05 04:21:30;;;;;;;16.00;11.90;;;9.20;99.90;;;;;;5015059;28;20224;-82
2023/05/05 04:23:57;;;;;;;18.85;10.65;;;9.20;99.90;;;;;;5006544;28;20291;-83
2023/05/05 04:26:24;;;;;;;13.43;11.68;;;9.30;99.90;;;;;;5005946;28;20202;-84
2023/05/05 04:28:51;;;;;;;16.38;10.68;;;9.40;99.90;;;;;;5013075;28;20218;-89
2023/05/05 04:31:19;;;;;;;13.35;10.32;;;9.40;99.90;;;;;;5017956;28;20196;-85
2023/05/05 04:33:48;;;;;;;14.70;10.27;;;9.50;99.90;;;;;;5022127;28;20264;-86
2023/05/05 04:36:19;;;;;;;11.48;10.20;;;9.60;99.90;;;;;;5019481;28;20194;-86
2023/05/05 04:38:45;;;;;;;11.63;9.40;;;9.70;99.90;;;;;;5009621;28;20214;-86
2023/05/05 04:41:12;;;;;;;19.65;11.05;;;9.80;99.90;;;;;;5004481;28;20212;-88
2023/05/05 04:43:40;;;;;;;14.63;10.90;;;10.10;99.90;;;;;;5015296;28;20284;-86
2023/05/05 04:46:20;;;;;;;15.73;10.75;;;10.20;99.90;;;;;;5014543;28;20188;-84
2023/05/05 04:48:48;;;;;;;14.20;10.10;;;10.50;99.90;;;;;;5006184;28;20488;-84
2023/05/05 04:51:15;;;;;;;16.55;13.43;;;10.70;99.90;;;;;;5000316;28;20386;-84
2023/05/05 04:53:42;;;;;;;19.75;11.00;;;11.00;99.90;;;;;;4982069;28;20497;-83
2023/05/05 04:56:10;;;;;;;17.55;11.23;;;11.20;99.90;;;;;;4983515;28;20248;-80
2023/05/05 04:58:37;;;;;;;11.38;10.30;;;11.50;99.90;;;;;;5006468;28;20209;-87
2023/05/05 05:01:04;;;;;;;12.32;10.77;;;11.70;99.90;;;;;;4995962;28;20269;-85
2023/05/05 05:03:32;;;;;;;15.75;11.30;;;11.90;99.90;;;;;;4992876;28;20275;-88
2023/05/05 05:06:01;;;;;;;16.20;12.52;;;12.10;99.90;;;;;;5001871;28;20690;-83
2023/05/05 05:08:28;;;;;;;22.70;13.35;;;12.30;99.90;;;;;;5012038;28;20280;-85
2023/05/05 05:10:55;;;;;;;14.48;11.18;;;12.30;99.90;;;;;;5014192;28;20197;-81
2023/05/05 05:13:21;;;;;;;20.90;12.70;;;12.30;99.90;;;;;;5013831;28;20326;-85
2023/05/05 05:15:50;;;;;;;14.50;10.85;;;12.30;99.90;;;;;;5006335;28;20264;-84
2023/05/05 05:18:16;;;;;;;17.52;11.57;;;12.50;99.90;;;;;;4989582;28;20249;-83
2023/05/05 05:20:43;;;;;;;20.17;11.65;;;12.50;99.90;;;;;;5010996;28;20246;-84
2023/05/05 05:23:10;;;;;;;13.88;10.95;;;12.50;99.90;;;;;;5023892;28;20240;-82
2023/05/05 05:25:37;;;;;;;19.17;11.95;;;12.80;99.90;;;;;;5014240;28;20209;-86
2023/05/05 05:28:04;;;;;;;15.93;11.65;;;13.00;99.90;;;;;;4985394;28;20202;-83
2023/05/05 05:30:36;;;;;;;21.77;11.38;;;13.10;99.90;;;;;;5014485;28;20496;-85
2023/05/05 05:33:03;;;;;;;19.02;12.18;;;13.10;99.90;;;;;;5005438;28;20214;-85
2023/05/05 05:35:30;;;;;;;17.08;11.10;;;13.50;99.90;;;;;;4987055;28;20502;-89
2023/05/05 05:37:58;;;;;;;21.02;12.07;;;13.50;99.90;;;;;;5016162;28;20213;-86
2023/05/05 05:40:25;;;;;;;15.40;11.83;;;13.50;99.90;;;;;;5018866;28;20205;-84
2023/05/05 05:42:52;;;;;;;17.52;11.65;;;13.50;99.90;;;;;;5016671;28;20454;-83
2023/05/05 05:45:21;;;;;;;15.73;11.25;;;13.60;99.90;;;;;;5021561;28;20234;-86
2023/05/05 05:47:48;;;;;;;15.20;11.00;;;13.70;99.90;;;;;;5026019;28;20209;-85
2023/05/05 05:50:18;;;;;;;12.23;10.63;;;13.70;99.90;;;;;;4989258;28;20417;-86
2023/05/05 05:52:48;;;;;;;18.30;11.15;;;13.90;99.90;;;;;;4997040;28;20439;-86
2023/05/05 05:55:15;;;;;;;22.65;11.05;;;14.00;99.90;;;;;;5009620;28;20470;-86
2023/05/05 05:57:43;;;;;;;18.23;13.13;;;14.20;99.90;;;;;;5014288;28;20389;-84
2023/05/05 06:00:11;;;;;;;16.25;10.95;;;14.30;99.90;;;;;;5016554;28;20443;-83
2023/05/05 06:02:38;;;;;;;20.73;10.07;;;14.20;99.90;;;;;;5004825;28;20225;-85
2023/05/05 06:05:11;;;;;;;17.37;12.00;;;14.10;99.90;;;;;;5014675;28;20256;-85
2023/05/05 06:07:39;;;;;;;13.40;10.70;;;14.50;99.90;;;;;;4994208;28;20444;-84
2023/05/05 06:10:06;;;;;;;16.47;10.73;;;14.60;99.90;;;;;;5012657;28;20435;-84
2023/05/05 06:12:52;;;;;;;20.93;11.67;;;14.90;99.90;;;;;;5022639;28;20519;-84
2023/05/05 06:15:19;;;;;;;12.67;10.70;;;15.10;99.90;;;;;;5013886;28;20469;-84
2023/05/05 06:17:50;;;;;;;15.97;10.57;;;15.00;99.90;;;;;;5012911;28;20437;-85
2023/05/05 06:20:18;;;;;;;16.53;10.40;;;14.70;99.90;;;;;;5011444;28;20414;-83
2023/05/05 06:22:46;;;;;;;12.30;10.17;;;14.90;99.90;;;;;;5003519;28;20792;-83
2023/05/05 06:25:14;;;;;;;11.43;10.00;;;15.00;99.90;;;;;;5024740;28;20494;-85
2023/05/05 06:27:43;;;;;;;13.73;9.83;;;15.20;99.90;;;;;;5005720;28;20825;-85
2023/05/05 06:30:10;;;;;;;13.10;10.83;;;15.20;99.90;;;;;;5007223;28;20443;-86
2023/05/05 06:32:38;;;;;;;16.47;11.53;;;15.50;99.90;;;;;;5001950;28;20433;-82
2023/05/05 06:35:06;;;;;;;11.60;10.40;;;15.20;99.90;;;;;;5010568;28;20440;-86
2023/05/05 06:37:38;;;;;;;13.13;10.27;;;15.50;99.90;;;;;;5011626;28;20498;-85
2023/05/05 06:40:07;;;;;;;24.13;10.33;;;15.80;99.90;;;;;;5016095;28;20422;-86
2023/05/05 06:42:36;;;;;;;11.03;9.87;;;16.20;99.90;;;;;;4997518;28;20410;-85
2023/05/05 06:45:04;;;;;;;14.07;10.57;;;16.30;99.90;;;;;;5018972;28;20478;-85
2023/05/05 06:47:32;;;;;;;17.17;10.87;;;16.20;99.90;;;;;;5002965;28;20467;-85
2023/05/05 06:49:59;;;;;;;16.03;10.80;;;16.60;99.90;;;;;;4995601;28;20423;-84
2023/05/05 06:52:27;;;;;;;16.07;11.93;;;17.20;99.90;;;;;;5022237;28;20448;-84
2023/05/05 06:54:54;;;;;;;13.17;10.93;;;17.70;99.90;;;;;;5007361;28;20432;-85
2023/05/05 06:57:21;;;;;;;11.77;10.63;;;18.40;99.90;;;;;;5021167;28;20426;-85
2023/05/05 06:59:49;;;;;;;12.20;10.87;;;18.70;99.90;;;;;;5009287;28;20604;-86
2023/05/05 07:02:16;;;;;;;20.63;11.60;;;18.60;99.90;;;;;;5003393;28;20442;-86
2023/05/05 07:04:43;;;;;;;12.87;10.67;;;19.00;99.90;;;;;;4996753;28;20542;-82
2023/05/05 07:07:10;;;;;;;10.27;9.20;;;19.20;99.90;;;;;;5017158;28;20416;-83
2023/05/05 07:09:37;;;;;;;11.87;9.33;;;19.30;99.90;;;;;;5005553;28;20414;-88
2023/05/05 07:12:04;;;;;;;13.30;9.30;;;19.70;99.90;;;;;;5009829;28;20447;-83
2023/05/05 07:14:31;;;;;;;10.80;9.63;;;19.90;99.90;;;;;;5012250;28;20456;-85
2023/05/05 07:17:00;;;;;;;10.63;9.33;;;20.00;99.90;;;;;;5001986;28;20680;-85
2023/05/05 07:19:27;;;;;;;13.00;11.60;;;20.10;99.90;;;;;;5010546;28;20780;-86
2023/05/05 07:21:55;;;;;;;12.03;9.63;;;21.20;99.90;;;;;;5009848;28;20429;-84
2023/05/05 07:24:23;;;;;;;9.30;8.50;;;22.50;99.90;;;;;;5004236;28;20490;-84
2023/05/05 07:26:52;;;;;;;9.70;8.70;;;23.20;99.90;;;;;;5006940;28;20448;-80
2023/05/05 07:29:19;;;;;;;9.67;8.50;;;25.20;95.80;;;;;;5004364;28;20478;-86
2023/05/05 07:31:46;;;;;;;10.13;9.10;;;26.60;87.30;;;;;;5010026;28;20444;-87
2023/05/05 07:34:14;;;;;;;11.30;9.70;;;27.10;78.70;;;;;;5010310;28;20455;-86
2023/05/05 07:36:44;;;;;;;8.97;8.10;;;26.70;77.40;;;;;;5009013;28;20455;-84
2023/05/05 07:39:13;;;;;;;10.70;8.13;;;26.60;73.10;;;;;;5010668;28;20627;-84
2023/05/05 07:41:42;;;;;;;9.90;7.57;;;25.50;72.00;;;;;;5011840;28;20451;-84
2023/05/05 07:44:08;;;;;;;9.27;7.27;;;25.20;73.70;;;;;;5009302;28;20530;-84
2023/05/05 07:46:44;;;;;;;9.27;7.87;;;25.60;73.20;;;;;;5023028;28;20529;-88
2023/05/05 07:49:11;;;;;;;9.63;8.63;;;27.60;67.50;;;;;;5013756;28;20443;-86
2023/05/05 07:51:38;;;;;;;11.97;7.53;;;30.00;59.70;;;;;;4994293;28;20471;-87
2023/05/05 07:54:06;;;;;;;8.10;7.30;;;31.80;54.70;;;;;;5004782;28;20469;-85
2023/05/05 07:56:33;;;;;;;9.17;8.27;;;31.80;49.90;;;;;;5015480;28;20431;-85
2023/05/05 07:59:02;;;;;;;10.73;7.77;;;32.30;49.60;;;;;;5015985;28;20620;-83
2023/05/05 08:01:28;;;;;;;8.23;7.53;;;31.70;48.90;;;;;;5002695;28;20486;-85
2023/05/05 08:03:55;;;;;;;8.10;7.17;;;30.80;48.40;;;;;;5009127;28;20443;-85
2023/05/05 08:06:23;;;;;;;8.90;7.67;;;30.90;49.10;;;;;;5010384;28;20480;-83
2023/05/05 08:08:52;;;;;;;9.30;8.10;;;31.90;47.80;;;;;;5012687;28;20707;-84
2023/05/05 08:11:19;;;;;;;7.90;7.20;;;31.50;47.40;;;;;;5004442;28;20481;-84
2023/05/05 08:13:46;;;;;;;10.20;6.80;;;29.80;49.10;;;;;;5013885;28;20489;-85
2023/05/05 08:16:14;;;;;;;7.83;6.97;;;28.90;50.50;;;;;;5012873;28;20451;-86
2023/05/05 08:18:41;;;;;;;7.37;6.70;;;28.80;49.60;;;;;;5011550;28;20450;-83
2023/05/05 08:21:09;;;;;;;8.90;8.10;;;27.50;52.00;;;;;;5010702;28;21105;-84
2023/05/05 08:23:37;;;;;;;8.30;6.87;;;27.80;53.00;;;;;;5000197;28;20802;-85
2023/05/05 08:26:08;;;;;;;13.23;7.20;;;28.90;50.70;;;;;;5006880;28;20499;-82
2023/05/05 08:28:35;;;;;;;5.77;5.20;;;29.90;48.90;;;;;;4998785;28;20494;-85
2023/05/05 08:31:03;;;;;;;6.43;5.90;;;30.50;47.60;;;;;;4986880;28;20455;-85
2023/05/05 08:33:30;;;;;;;9.90;7.23;;;30.10;48.50;;;;;;4993491;28;20454;-87
2023/05/05 08:35:57;;;;;;;8.10;6.50;;;30.40;48.20;;;;;;5018637;28;20446;-81
2023/05/05 08:38:24;;;;;;;6.23;5.70;;;30.80;46.90;;;;;;4989638;28;20451;-82
2023/05/05 08:40:53;;;;;;;9.23;6.43;;;31.70;45.40;;;;;;5022177;28;20468;-85
2023/05/05 08:43:22;;;;;;;6.33;5.67;;;32.10;44.70;;;;;;5011611;28;20450;-83
2023/05/05 08:45:50;;;;;;;10.43;5.90;;;31.80;44.50;;;;;;5016267;28;20458;-82
2023/05/05 08:48:19;;;;;;;5.67;5.07;;;30.90;44.00;;;;;;5017113;28;20466;-82
2023/05/05 08:50:51;;;;;;;6.83;5.40;;;30.80;45.10;;;;;;5011141;28;20507;-87
2023/05/05 08:53:45;;;;;;;4.73;4.33;;;32.80;43.90;;;;;;5000598;28;20495;-83
2023/05/05 08:56:15;;;;;;;6.07;4.87;;;32.90;41.60;;;;;;5005070;28;20607;-86
2023/05/05 08:58:43;;;;;;;6.87;4.87;;;32.30;41.40;;;;;;5015661;28;20444;-83
2023/05/05 09:01:11;;;;;;;5.40;5.00;;;31.90;40.80;;;;;;5004579;28;20450;-86
2023/05/05 09:03:39;;;;;;;6.73;4.67;;;30.70;43.30;;;;;;5017771;28;20449;-84
2023/05/05 09:06:06;;;;;;;4.67;4.23;;;29.10;44.00;;;;;;5006127;28;20454;-88
2023/05/05 09:08:33;;;;;;;5.87;4.13;;;26.80;46.60;;;;;;4997989;28;20447;-82
2023/05/05 09:11:01;;;;;;;5.73;4.40;;;27.70;45.30;;;;;;5006291;28;20440;-84
2023/05/05 09:13:32;;;;;;;8.00;3.83;;;29.10;45.00;;;;;;5009424;28;20446;-85
2023/05/05 09:16:16;;;;;;;4.67;4.27;;;29.10;43.60;;;;;;5023152;28;20453;-82
2023/05/05 09:18:44;;;;;;;5.63;3.63;;;28.90;43.30;;;;;;5018551;28;20477;-82
2023/05/05 09:21:23;;;;;;;4.33;3.93;;;28.90;44.30;;;;;;5019535;28;20687;-82
2023/05/05 09:24:07;;;;;;;5.90;3.80;;;27.90;44.50;;;;;;5016840;28;20509;-81
2023/05/05 09:26:43;;;;;;;3.30;3.00;;;26.60;45.30;;;;;;5005180;28;20443;-83
2023/05/05 09:29:20;;;;;;;5.50;3.77;;;24.80;47.40;;;;;;5016331;28;20505;-86
2023/05/05 09:32:07;;;;;;;3.73;3.20;;;24.50;50.50;;;;;;5004665;28;20468;-83
2023/05/05 09:34:34;;;;;;;3.10;2.80;;;23.90;49.90;;;;;;5009465;28;20492;-83
2023/05/05 09:37:02;;;;;;;6.97;3.83;;;22.80;51.60;;;;;;5013506;28;20451;-87
2023/05/05 09:39:29;;;;;;;13.43;3.97;;;22.70;53.90;;;;;;5007251;28;20546;-85
2023/05/05 09:41:56;;;;;;;4.97;4.47;;;22.30;54.40;;;;;;5006001;28;20476;-83
2023/05/05 09:44:34;;;;;;;4.10;3.10;;;22.20;54.10;;;;;;5006778;28;20483;-84
2023/05/05 09:47:01;;;;;;;3.33;2.97;;;21.90;54.80;;;;;;4995794;28;20790;-84
2023/05/05 09:49:57;;;;;;;8.73;4.30;;;21.60;55.50;;;;;;5003512;28;20556;-87
2023/05/05 09:52:26;;;;;;;5.53;4.23;;;21.50;56.10;;;;;;5015981;28;20418;-85
2023/05/05 09:54:57;;;;;;;4.40;4.00;;;21.30;56.90;;;;;;5004126;28;20567;-86
2023/05/05 09:57:34;;;;;;;9.03;4.93;;;21.00;57.80;;;;;;5018744;28;20506;-80
2023/05/05 10:00:03;;;;;;;4.70;3.47;;;20.70;59.20;;;;;;4992801;28;20422;-86
2023/05/05 10:02:35;;;;;;;6.97;4.20;;;20.80;59.50;;;;;;4989878;28;20422;-84
2023/05/05 10:05:17;;;;;;;5.33;3.53;;;20.70;59.30;;;;;;4993745;28;20469;-83
2023/05/05 10:07:49;;;;;;;4.47;3.37;;;20.90;60.10;;;;;;4999092;28;20462;-89
2023/05/05 10:10:17;;;;;;;5.37;4.17;;;21.30;60.50;;;;;;5013282;28;20440;-83
2023/05/05 10:12:46;;;;;;;4.10;3.80;;;21.30;60.00;;;;;;5015927;28;20414;-85
2023/05/05 10:15:16;;;;;;;3.23;2.93;;;21.20;60.00;;;;;;5014026;28;20483;-83
2023/05/05 10:17:45;;;;;;;4.67;4.10;;;21.10;61.10;;;;;;4997568;28;20428;-83
2023/05/05 10:20:34;;;;;;;5.53;3.80;;;21.10;62.00;;;;;;5004475;28;20411;-81
2023/05/05 10:23:04;;;;;;;3.90;3.50;;;21.20;61.00;;;;;;5009488;28;20439;-83
2023/05/05 10:25:42;;;;;;;6.60;4.03;;;21.20;60.00;;;;;;5008570;28;20442;-81
2023/05/05 10:28:10;;;;;;;4.30;3.60;;;21.10;59.60;;;;;;4988474;28;20477;-83
2023/05/05 10:30:42;;;;;;;4.23;3.53;;;21.10;60.50;;;;;;4988402;28;20444;-85
2023/05/05 10:33:16;;;;;;;5.43;4.23;;;21.20;61.10;;;;;;5002832;28;20417;-83
2023/05/05 10:36:00;;;;;;;7.13;3.47;;;21.20;60.00;;;;;;5018168;28;20489;-85
2023/05/05 10:38:29;;;;;;;3.90;3.60;;;21.10;61.40;;;;;;5013265;28;20450;-82
2023/05/05 10:40:58;;;;;;;4.47;4.10;;;21.10;60.90;;;;;;4985761;28;20499;-83
2023/05/05 10:43:27;;;;;;;9.13;4.13;;;21.00;63.90;;;;;;5009806;28;20818;-82
2023/05/05 10:45:54;;;;;;;5.97;4.10;;;21.10;63.90;;;;;;5018276;28;20529;-84
2023/05/05 10:48:38;;;;;;;4.50;3.23;;;21.10;64.60;;;;;;5003622;28;20484;-84
2023/05/05 10:51:26;;;;;;;7.10;4.10;;;21.00;63.20;;;;;;5019036;28;20417;-84
2023/05/05 10:54:23;;;;;;;4.23;3.70;;;21.00;64.00;;;;;;5010853;28;20429;-84
2023/05/05 10:56:51;;;;;;;4.53;3.80;;;21.40;62.50;;;;;;5004181;28;20441;-86
2023/05/05 10:59:36;;;;;;;4.23;3.03;;;21.30;61.50;;;;;;5004854;28;20494;-84
2023/05/05 11:02:25;;;;;;;4.07;3.30;;;21.20;61.80;;;;;;5011360;28;20442;-81
2023/05/05 11:05:21;;;;;;;7.10;4.40;;;21.10;61.50;;;;;;5002790;28;20447;-82
2023/05/05 11:07:50;;;;;;;4.50;3.50;;;21.00;63.30;;;;;;4997965;28;20439;-82
2023/05/05 11:10:22;;;;;;;8.07;3.37;;;21.20;63.20;;;;;;5009370;28;20471;-86
2023/05/05 11:13:01;;;;;;;4.87;3.40;;;21.30;64.80;;;;;;5007546;28;20446;-80
2023/05/05 11:15:28;;;;;;;7.00;6.30;;;21.50;66.30;;;;;;5010138;28;20562;-85
2023/05/05 11:17:57;;;;;;;4.13;3.33;;;21.50;63.40;;;;;;4991885;28;20492;-84
2023/05/05 11:20:56;;;;;;;3.90;3.30;;;21.40;64.00;;;;;;5015687;28;20444;-87
2023/05/05 11:23:27;;;;;;;4.97;3.43;;;21.40;63.80;;;;;;4962910;28;20439;-84
2023/05/05 11:25:56;;;;;;;7.73;3.40;;;21.50;66.80;;;;;;4993923;28;20508;-85
2023/05/05 11:28:28;;;;;;;4.10;3.13;;;21.70;64.20;;;;;;4993814;28;20454;-82
2023/05/05 11:30:58;;;;;;;3.20;2.80;;;21.60;63.80;;;;;;5007247;28;20435;-85
2023/05/05 11:33:31;;;;;;;6.23;3.50;;;21.30;63.10;;;;;;5010786;28;20432;-84
2023/05/05 11:35:59;;;;;;;3.33;2.90;;;21.40;64.50;;;;;;5005882;28;20458;-82
2023/05/05 11:38:48;;;;;;;3.87;3.07;;;21.60;66.60;;;;;;5013007;28;20410;-82
2023/05/05 11:41:34;;;;;;;4.00;3.60;;;21.90;65.00;;;;;;5009478;28;20451;-86
2023/05/05 11:44:15;;;;;;;6.13;4.13;;;22.00;64.10;;;;;;5004048;28;20449;-83
2023/05/05 11:46:51;;;;;;;9.67;3.47;;;21.70;62.70;;;;;;5005205;28;20432;-80
2023/05/05 11:49:35;;;;;;;6.93;3.20;;;21.50;64.60;;;;;;5010606;28;20447;-81
2023/05/05 11:52:07;;;;;;;4.03;3.40;;;21.50;63.80;;;;;;5008766;28;20413;-83
2023/05/05 11:54:35;;;;;;;4.43;3.63;;;21.40;62.70;;;;;;5008143;28;20427;-83
2023/05/05 11:57:09;;;;;;;3.63;3.10;;;21.40;64.20;;;;;;5010854;28;20457;-85
2023/05/05 11:59:47;;;;;;;4.53;2.70;;;21.50;63.10;;;;;;4988386;28;20439;-84
2023/05/05 12:02:16;;;;;;;3.70;3.27;;;21.70;63.60;;;;;;5013410;28;20444;-83
2023/05/05 12:04:43;;;;;;;5.33;3.10;;;22.00;63.40;;;;;;5011089;28;20429;-82
2023/05/05 12:07:21;;;;;;;3.80;3.00;;;22.00;62.50;;;;;;5001673;28;20448;-84
2023/05/05 12:09:49;;;;;;;3.33;2.63;;;22.00;62.00;;;;;;5000550;28;20450;-86
2023/05/05 12:12:16;;;;;;;4.33;3.33;;;22.00;61.20;;;;;;4984568;28;20426;-86
2023/05/05 12:14:53;;;;;;;5.57;3.30;;;22.00;60.80;;;;;;5016767;28;20446;-84
2023/05/05 12:17:21;;;;;;;7.07;2.90;;;22.30;62.10;;;;;;5022182;28;20466;-86
2023/05/05 12:19:53;;;;;;;5.43;3.20;;;22.60;61.00;;;;;;4989757;28;20474;-83
2023/05/05 12:22:25;;;;;;;9.07;3.67;;;22.90;60.50;;;;;;4992029;28;20779;-87
2023/05/05 12:25:04;;;;;;;2.80;2.60;;;22.80;58.30;;;;;;5011176;28;20672;-84
2023/05/05 12:27:31;;;;;;;2.20;2.00;;;22.80;58.20;;;;;;5015316;28;20450;-85
2023/05/05 12:30:14;;;;;;;3.07;2.63;;;22.80;57.40;;;;;;4998606;28;20436;-85
2023/05/05 12:32:42;;;;;;;3.30;3.00;;;22.50;58.70;;;;;;4999613;28;20475;-84
2023/05/05 12:35:11;;;;;;;3.20;2.90;;;22.40;57.80;;;;;;4985444;28;20681;-84
2023/05/05 12:37:38;;;;;;;7.20;3.37;;;22.50;58.80;;;;;;4988617;28;20455;-83
2023/05/05 12:40:27;;;;;;;4.03;3.60;;;22.80;59.30;;;;;;5014722;28;20450;-85
2023/05/05 12:42:54;;;;;;;4.30;2.83;;;23.00;56.90;;;;;;4986968;28;20443;-83
2023/05/05 12:45:21;;;;;;;3.00;2.70;;;23.30;58.70;;;;;;5009745;28;20766;-84
2023/05/05 12:47:48;;;;;;;4.67;3.50;;;23.40;57.20;;;;;;4992132;28;20491;-84
2023/05/05 12:50:30;;;;;;;3.73;3.33;;;23.00;56.30;;;;;;4989798;28;20465;-87
2023/05/05 12:52:57;;;;;;;3.13;2.60;;;22.30;57.60;;;;;;5009619;28;20453;-82
2023/05/05 12:55:38;;;;;;;2.70;2.40;;;22.40;59.80;;;;;;5004355;28;20482;-86
2023/05/05 12:58:08;;;;;;;6.93;3.13;;;22.20;58.30;;;;;;5012190;28;20435;-85